Insider Buying

 
Symbol Name Keyword
Filings for:
Note: This page automatically refreshes every three minutes.
  Symbol Owner Relationship Date Cost # Shares Value($) Total Shares Filing
Y! ALDX DOUGLAS RICHARD Director Sep 10, 2019 $5.09 10,000 50,857 60,000 Sep 11, 2019, 04:05 PM
Y! ALDX DOUGLAS RICHARD Director Sep 09, 2019 $4.91 10,000 49,106 50,000 Sep 11, 2019, 04:05 PM
Y! SENS Goodnow Timothy T President and CEO Sep 09, 2019 $1.10 88,500 97,350 425,012 Sep 11, 2019, 04:04 PM
Y! TEX HENRY BRIAN J SVP Finance, Bus Development Sep 09, 2019 $26.17 88 2,303 334,534 Sep 11, 2019, 04:00 PM
Y! TEX BARR KEVIN A Senior V. P. Human Resources Sep 09, 2019 $26.17 9 236 108,068 Sep 11, 2019, 04:00 PM
Y! TEX SHEEHAN JOHN D Senior Vice President, CFO Sep 09, 2019 $26.09 751 19,594 214,330 Sep 11, 2019, 04:00 PM
Y! VOLT Grubbs William J Director Sep 11, 2019 $3.02 5,000 15,118 37,295 Sep 11, 2019, 03:42 PM
Y! ISTR Lukinovich David J Director Sep 03, 2019 $23.01 46 1,059 13,010 Sep 11, 2019, 02:35 PM
Y! PGNX Velan Capital, L.P. 10% Owner Sep 09, 2019 $4.99 72,023 359,733 8,011,733 Sep 11, 2019, 01:32 PM
Y! DUOT Goldfarb Adrian Graham CFO Sep 10, 2019 $0.39 1,700 660 67,649 Sep 11, 2019, 01:17 PM
Y! CTDH SHANAHAN WILLIAM S Director Sep 10, 2019 $0.20 100,000 20,000 2,505,460 Sep 11, 2019, 01:12 PM
Y! CTDH SHANAHAN WILLIAM S Director Sep 09, 2019 $0.18 100,000 18,000 2,405,460 Sep 11, 2019, 01:12 PM
Y! CULP MCALLISTER KENNETH W Director Sep 10, 2019 $15.26 2,000 30,520 29,177 Sep 11, 2019, 12:55 PM
Y! RARE KAKKIS EMIL D President & CEO Sep 11, 2019 $43.63 5,000 218,150 472,479 Sep 11, 2019, 12:35 PM
Y! VSTR Lenk Cecilia CEO, Chair of Board Sep 09, 2019 $0.01 25,000,000 300,000 45,000,000 Sep 11, 2019, 12:11 PM
Y! VSTR Kraysler Coreen Sarah CFO Sep 09, 2019 $0.01 25,000,000 300,000 45,000,000 Sep 11, 2019, 11:59 AM
Y! LIVE Isaac Jon CEO and President Sep 11, 2019 $7.00 17,544 122,788 1,554,467 Sep 11, 2019, 11:20 AM
Y! TPL HORIZON KINETICS ASSET MANAGEMENT LLC 10% Owner Sep 10, 2019 $659.40 49 32,311 301,268 Sep 11, 2019, 11:11 AM
Y! AGYS Kingsley Jebaseelan VP, Professional Services Sep 09, 2019 $25.59 2,000 51,180 11,630 Sep 11, 2019, 09:29 AM
Y! CTLT LUCIER GREGORY T Director Sep 09, 2019 $51.64 2,000 103,280 38,921 Sep 11, 2019, 08:30 AM
Y! LIVX ELLIN ROBERT S CEO & Chairman Sep 06, 2019 $2.09 2,800 5,847 17,217,041 Sep 10, 2019, 09:15 PM
Y! LIVX ELLIN ROBERT S CEO & Chairman Sep 09, 2019 $1.93 6,600 12,711 17,223,641 Sep 10, 2019, 09:15 PM
Y! ORGO Avista Capital Managing Member IV, LLC Director Sep 06, 2019 $5.18 500,000 2,592,300 18,077,265 Sep 10, 2019, 07:56 PM
Y! ORGO Avista Capital Managing Member IV, LLC Director Sep 10, 2019 $5.18 12,000 62,207 18,114,265 Sep 10, 2019, 07:56 PM
Y! ORGO Avista Capital Managing Member IV, LLC Director Sep 09, 2019 $5.12 25,000 128,023 18,102,265 Sep 10, 2019, 07:56 PM
Y! HOME Corsa Peter SG President and COO Sep 09, 2019 $7.86 6,393 50,218 8,653 Sep 10, 2019, 07:48 PM
Y! HOME FRANCIS PHILIP L Director Sep 09, 2019 $7.84 21,125 165,603 72,883 Sep 10, 2019, 07:47 PM
Y! HOME Knudson Jeffrey R Chief Financial Officer Sep 09, 2019 $7.89 10,000 78,900 30,798 Sep 10, 2019, 07:46 PM
Y! HOME McLeod Norman E Chief Development Officer Sep 10, 2019 $7.99 4,000 31,956 13,672 Sep 10, 2019, 07:45 PM
Y! MIRM Clements Ian SVP Finance & Communications Sep 06, 2019 $11.51 4,000 46,039 4,000 Sep 10, 2019, 07:19 PM
Y! MIRM Vig Pamela Chief Scientific Officer Sep 06, 2019 $10.97 1,612 17,682 1,612 Sep 10, 2019, 07:17 PM
Y! MIRM Peetz Christopher President and CEO Sep 09, 2019 $11.14 4,320 48,132 196,570 Sep 10, 2019, 07:11 PM
Y! MIRM Peetz Christopher President and CEO Sep 06, 2019 $10.91 4,750 51,806 192,250 Sep 10, 2019, 07:11 PM
Y! MIRM Fischer Laurent Director Sep 06, 2019 $10.71 1,720 18,429 1,720 Sep 10, 2019, 07:10 PM
Y! MIRM Fischer Laurent Director Sep 10, 2019 $10.29 960 9,881 4,650 Sep 10, 2019, 07:10 PM
Y! MIRM Fischer Laurent Director Sep 09, 2019 $10.66 1,970 20,992 3,690 Sep 10, 2019, 07:10 PM
Y! FTLF Dayton Judd CHIEF EXECUTIVE OFFICER Sep 09, 2019 $8.73 1,000 8,730 11,287 Sep 10, 2019, 07:07 PM
Y! ORGO NUSSDORF GLENN H Director Sep 06, 2019 $5.03 10,000 50,274 67,961,823 Sep 10, 2019, 06:39 PM
Y! ORGO Ades Alan A. Director Sep 06, 2019 $5.03 10,000 50,274 67,961,823 Sep 10, 2019, 06:30 PM
Y! RKDA Plavan Matthew T Chief Executive Officer Sep 10, 2019 $6.51 2,000 13,014 10,000 Sep 10, 2019, 06:24 PM
Y! RKDA Reiter Sarah Chief Commercial Officer Sep 10, 2019 $6.48 1,200 7,776 1,200 Sep 10, 2019, 06:02 PM
Y! NICK Peterson Adam K Director Sep 09, 2019 $9.20 15,101 138,929 1,924,060 Sep 10, 2019, 06:00 PM
Y! NICK Peterson Adam K Director Sep 06, 2019 $9.05 146 1,321 1,908,959 Sep 10, 2019, 06:00 PM
Y! DOMO James Joshua G Founder, CEO and Chairman Sep 10, 2019 $17.00 60,000 1,020,000 160,000 Sep 10, 2019, 05:59 PM
Y! RKDA Comcowich Kevin Director Sep 10, 2019 $6.49 15,000 97,333 15,000 Sep 10, 2019, 05:57 PM
Y! COMM KRAUSE L WILLIAM Director Sep 09, 2019 $11.87 21,250 252,248 80,843 Sep 10, 2019, 05:36 PM
Y! HOME SOSIN CLIFFORD 10% Owner Sep 05, 2019 $5.90 175,278 1,034,140 8,345,214 Sep 10, 2019, 05:27 PM
Y! HOME SOSIN CLIFFORD 10% Owner Sep 04, 2019 $6.55 65,000 425,750 8,169,936 Sep 10, 2019, 05:27 PM
Y! ZIVO Maggiore Christopher D. Director Sep 03, 2019 $0.09 10,000 900 22,035,420 Sep 10, 2019, 05:27 PM
Y! ZIVO Maggiore Christopher D. Director Sep 06, 2019 $0.09 10,000 900 22,080,420 Sep 10, 2019, 05:27 PM
Y! ZIVO Maggiore Christopher D. Director Sep 05, 2019 $0.09 35,000 3,150 22,070,420 Sep 10, 2019, 05:27 PM
Y! EMMA ZEN Wei Peu Director Sep 09, 2019 $4.25 40,000 170,000 375,308 Sep 10, 2019, 05:25 PM
Y! MIK RAFF BERYL Director Sep 06, 2019 $7.47 6,700 50,049 30,993 Sep 10, 2019, 05:17 PM
Y! MDP Harty Thomas H President and CEO Sep 09, 2019 $35.02 12,000 420,240 46,455 Sep 10, 2019, 05:16 PM
Y! PRU TANJI KENNETH EVP and CFO Sep 09, 2019 $83.84 2,500 209,600 19,285 Sep 10, 2019, 05:12 PM
Y! PRU FALZON ROBERT EVP and Vice Chairman Sep 09, 2019 $83.98 3,580 300,648 3,580 Sep 10, 2019, 05:11 PM
Y! PRU Lowrey Charles F Chief Executive Officer Sep 09, 2019 $83.68 7,500 627,600 64,263 Sep 10, 2019, 05:10 PM
Y! FTAI TUCHMAN MARTIN Director Sep 09, 2019 $25.65 25,000 641,250 25,000 Sep 10, 2019, 05:06 PM
Y! FTAI TUCHMAN MARTIN Director Sep 09, 2019 $25.69 19,900 511,231 25,400 Sep 10, 2019, 05:06 PM
Y! FTAI TUCHMAN MARTIN Director Sep 06, 2019 $25.40 5,500 139,700 5,500 Sep 10, 2019, 05:06 PM
Y! BRTX ALSTODT LANCE EVP and Chief Strategy Officer Sep 09, 2019 $0.26 20,000 5,220 50,000 Sep 10, 2019, 05:01 PM
Y! ALDX Clark David J Chief Medical Officer Sep 06, 2019 $5.06 5,000 25,311 17,878 Sep 10, 2019, 05:01 PM
Y! DOMO James Joshua G Founder, CEO and Chairman Sep 10, 2019 $17.00 60,000 1,020,000 160,000 Sep 10, 2019, 04:42 PM
Y! REI Hoffman Kelly W. CEO Sep 06, 2019 $1.40 15,000 21,000 37,546 Sep 10, 2019, 04:42 PM
Y! SGRY DeLuca Teresa Director Sep 06, 2019 $6.65 1,000 6,650 27,459 Sep 10, 2019, 04:40 PM
Y! THC GLENVIEW CAPITAL MANAGEMENT, LLC 10% Owner Sep 06, 2019 $19.65 8,160 160,309 19,447,419 Sep 10, 2019, 04:31 PM
Y! NCSM Stromquist Marty President Sep 06, 2019 $2.25 30,832 69,372 99,523 Sep 10, 2019, 04:24 PM
Y! NCSM Stromquist Marty President Sep 09, 2019 $2.25 9,080 20,430 108,603 Sep 10, 2019, 04:24 PM
Y! WSR MASTANDREA JAMES C CHAIRMAN & CEO Sep 06, 2019 $12.64 10,000 126,400 1,027,250 Sep 10, 2019, 04:15 PM
Y! AVK SMART MICHAEL A Director Sep 10, 2019 $14.24 3 43 4,808 Sep 10, 2019, 04:09 PM
Y! MNTX FILIPOV STEVE Chief Executive Officer Sep 06, 2019 $5.92 5,000 29,578 66,736 Sep 10, 2019, 04:08 PM
Y! WTR Hilferty Daniel J III Director Sep 09, 2019 $43.38 1,152 49,968 9,872 Sep 10, 2019, 04:06 PM
Y! PFBI SCAGGS NEAL Director Sep 09, 2019 $15.25 3,628 55,327 170,597 Sep 10, 2019, 04:06 PM
Y! KFFB Whitaker Tony D Director Sep 09, 2019 $7.46 250 1,866 48,050 Sep 10, 2019, 03:43 PM
Y! KFFB Whitaker Tony D Director Sep 09, 2019 $7.51 1,300 9,760 54,074 Sep 10, 2019, 03:43 PM
Y! CZNC Pellegrino Frank G Director Sep 06, 2019 $23.22 154 3,577 10,726 Sep 10, 2019, 02:54 PM
Y! CMT PALOMAKI ERIC EVP,Operations Sep 03, 2019 $6.10 100 610 31,466 Sep 10, 2019, 02:41 PM
Y! CMT PALOMAKI ERIC EVP,Operations Sep 06, 2019 $6.23 508 3,165 32,874 Sep 10, 2019, 02:41 PM
Y! CMT PALOMAKI ERIC EVP,Operations Sep 04, 2019 $6.10 900 5,490 32,366 Sep 10, 2019, 02:41 PM
Y! CTRN Sachse Peter R Director Sep 09, 2019 $16.84 9,000 151,560 13,390 Sep 10, 2019, 12:21 PM
Y! HIBB BLAHNIK RONALD P SVP and CIO Sep 09, 2019 $15.84 6,125 97,020 14,700 Sep 10, 2019, 12:00 PM
Y! ESOA Elliott Bruce H. Director Sep 09, 2019 $0.75 3,750 2,813 167,366 Sep 10, 2019, 11:20 AM
Y! TPL HORIZON KINETICS ASSET MANAGEMENT LLC 10% Owner Sep 09, 2019 $686.90 49 33,658 301,219 Sep 10, 2019, 10:52 AM
Y! PCTI Neumann David A Chief Executive Officer Sep 09, 2019 $7.00 1,000 7,000 234,759 Sep 10, 2019, 08:19 AM
Y! SALM ATSINGER EDWARD G III Chief Executive Officer Sep 05, 2019 $1.45 7,645 11,084 48,968 Sep 09, 2019, 07:59 PM
Y! SALM ATSINGER EDWARD G III Chief Executive Officer Sep 06, 2019 $1.45 1,400 2,027 50,368 Sep 09, 2019, 07:59 PM
Y! FSK HAGAN MICHAEL J Director Sep 09, 2019 $5.95 42,100 250,491 112,100 Sep 09, 2019, 07:13 PM
Y! QBAK BRONSON STEVEN N COB, CEO, President Sep 05, 2019 $5.47 6,866 37,546 646,360 Sep 09, 2019, 06:54 PM
Y! QBAK BRONSON STEVEN N COB, CEO, President Sep 09, 2019 $5.57 6,043 33,656 664,834 Sep 09, 2019, 06:54 PM
Y! QBAK BRONSON STEVEN N COB, CEO, President Sep 06, 2019 $5.56 12,431 69,082 658,791 Sep 09, 2019, 06:54 PM
Y! MXL LITCHFIELD STEVEN G See remarks Sep 09, 2019 $20.90 11,953 249,864 22,466 Sep 09, 2019, 06:35 PM
Y! RRTS ELLIOTT INTERNATIONAL, L.P. 10% Owner Sep 06, 2019 $9.65 441 4,256 23,201,151 Sep 09, 2019, 06:23 PM
Y! RRTS ELLIOTT INTERNATIONAL, L.P. 10% Owner Sep 05, 2019 $9.77 1,453 14,196 23,200,710 Sep 09, 2019, 06:23 PM
Y! RRTS ELLIOTT INTERNATIONAL, L.P. 10% Owner Sep 09, 2019 $9.64 734 7,076 23,201,885 Sep 09, 2019, 06:23 PM
Y! PGNX LTE Partners, LLC 10% Owner Sep 09, 2019 $4.94 21,480 106,096 1,950,000 Sep 09, 2019, 06:14 PM
Y! PGNX LTE Partners, LLC 10% Owner Sep 05, 2019 $4.62 43,520 201,097 1,928,520 Sep 09, 2019, 06:14 PM
Y! CHRA Shannon Roger D CFO and Treasurer Sep 05, 2019 $2.60 12,000 31,166 145,274 Sep 09, 2019, 06:09 PM
Y! VOLT Cyprus Nick Director Sep 09, 2019 $3.19 1,500 4,789 41,253 Sep 09, 2019, 06:03 PM
Y! RYI Orth John E SVP, Operations Sep 06, 2019 $7.16 1,875 13,425 3,541 Sep 09, 2019, 05:46 PM
Y! AERI RUBINO RICHARD J Chief Financial Officer Sep 09, 2019 $19.93 5,040 100,447 339,446 Sep 09, 2019, 05:45 PM
First : Previous :
 
Symbol Name Keyword
Filings for:
Note: This page automatically refreshes every three minutes.
Desktop Version
Symbol Owner Relationship Date Value($)
ALDX DOUGLAS RICHARD Director Sep 10, 2019 50,857
ALDX DOUGLAS RICHARD Director Sep 09, 2019 49,106
SENS Goodnow Timothy T President and CEO Sep 09, 2019 97,350
TEX HENRY BRIAN J SVP Finance, Bus Development Sep 09, 2019 2,303
TEX BARR KEVIN A Senior V. P. Human Resources Sep 09, 2019 236
TEX SHEEHAN JOHN D Senior Vice President, CFO Sep 09, 2019 19,594
VOLT Grubbs William J Director Sep 11, 2019 15,118
ISTR Lukinovich David J Director Sep 03, 2019 1,059
PGNX Velan Capital, L.P. 10% Owner Sep 09, 2019 359,733
DUOT Goldfarb Adrian Graham CFO Sep 10, 2019 660
CTDH SHANAHAN WILLIAM S Director Sep 10, 2019 20,000
CTDH SHANAHAN WILLIAM S Director Sep 09, 2019 18,000
CULP MCALLISTER KENNETH W Director Sep 10, 2019 30,520
RARE KAKKIS EMIL D President & CEO Sep 11, 2019 218,150
VSTR Lenk Cecilia CEO, Chair of Board Sep 09, 2019 300,000
VSTR Kraysler Coreen Sarah CFO Sep 09, 2019 300,000
LIVE Isaac Jon CEO and President Sep 11, 2019 122,788
TPL HORIZON KINETICS ASSET MANAGEMENT LLC 10% Owner Sep 10, 2019 32,311
AGYS Kingsley Jebaseelan VP, Professional Services Sep 09, 2019 51,180
CTLT LUCIER GREGORY T Director Sep 09, 2019 103,280
LIVX ELLIN ROBERT S CEO & Chairman Sep 06, 2019 5,847
LIVX ELLIN ROBERT S CEO & Chairman Sep 09, 2019 12,711
ORGO Avista Capital Managing Member IV, LLC Director Sep 06, 2019 2,592,300
ORGO Avista Capital Managing Member IV, LLC Director Sep 10, 2019 62,207
ORGO Avista Capital Managing Member IV, LLC Director Sep 09, 2019 128,023
HOME Corsa Peter SG President and COO Sep 09, 2019 50,218
HOME FRANCIS PHILIP L Director Sep 09, 2019 165,603
HOME Knudson Jeffrey R Chief Financial Officer Sep 09, 2019 78,900
HOME McLeod Norman E Chief Development Officer Sep 10, 2019 31,956
MIRM Clements Ian SVP Finance & Communications Sep 06, 2019 46,039
MIRM Vig Pamela Chief Scientific Officer Sep 06, 2019 17,682
MIRM Peetz Christopher President and CEO Sep 09, 2019 48,132
MIRM Peetz Christopher President and CEO Sep 06, 2019 51,806
MIRM Fischer Laurent Director Sep 06, 2019 18,429
MIRM Fischer Laurent Director Sep 10, 2019 9,881
MIRM Fischer Laurent Director Sep 09, 2019 20,992
FTLF Dayton Judd CHIEF EXECUTIVE OFFICER Sep 09, 2019 8,730
ORGO NUSSDORF GLENN H Director Sep 06, 2019 50,274
ORGO Ades Alan A. Director Sep 06, 2019 50,274
RKDA Plavan Matthew T Chief Executive Officer Sep 10, 2019 13,014
RKDA Reiter Sarah Chief Commercial Officer Sep 10, 2019 7,776
NICK Peterson Adam K Director Sep 09, 2019 138,929
NICK Peterson Adam K Director Sep 06, 2019 1,321
DOMO James Joshua G Founder, CEO and Chairman Sep 10, 2019 1,020,000
RKDA Comcowich Kevin Director Sep 10, 2019 97,333
COMM KRAUSE L WILLIAM Director Sep 09, 2019 252,248
HOME SOSIN CLIFFORD 10% Owner Sep 05, 2019 1,034,140
HOME SOSIN CLIFFORD 10% Owner Sep 04, 2019 425,750
ZIVO Maggiore Christopher D. Director Sep 03, 2019 900
ZIVO Maggiore Christopher D. Director Sep 06, 2019 900
ZIVO Maggiore Christopher D. Director Sep 05, 2019 3,150
EMMA ZEN Wei Peu Director Sep 09, 2019 170,000
MIK RAFF BERYL Director Sep 06, 2019 50,049
MDP Harty Thomas H President and CEO Sep 09, 2019 420,240
PRU TANJI KENNETH EVP and CFO Sep 09, 2019 209,600
PRU FALZON ROBERT EVP and Vice Chairman Sep 09, 2019 300,648
PRU Lowrey Charles F Chief Executive Officer Sep 09, 2019 627,600
FTAI TUCHMAN MARTIN Director Sep 09, 2019 641,250
FTAI TUCHMAN MARTIN Director Sep 09, 2019 511,231
FTAI TUCHMAN MARTIN Director Sep 06, 2019 139,700
BRTX ALSTODT LANCE EVP and Chief Strategy Officer Sep 09, 2019 5,220
ALDX Clark David J Chief Medical Officer Sep 06, 2019 25,311
DOMO James Joshua G Founder, CEO and Chairman Sep 10, 2019 1,020,000
REI Hoffman Kelly W. CEO Sep 06, 2019 21,000
SGRY DeLuca Teresa Director Sep 06, 2019 6,650
THC GLENVIEW CAPITAL MANAGEMENT, LLC 10% Owner Sep 06, 2019 160,309
NCSM Stromquist Marty President Sep 06, 2019 69,372
NCSM Stromquist Marty President Sep 09, 2019 20,430
WSR MASTANDREA JAMES C CHAIRMAN & CEO Sep 06, 2019 126,400
AVK SMART MICHAEL A Director Sep 10, 2019 43
MNTX FILIPOV STEVE Chief Executive Officer Sep 06, 2019 29,578
WTR Hilferty Daniel J III Director Sep 09, 2019 49,968
PFBI SCAGGS NEAL Director Sep 09, 2019 55,327
KFFB Whitaker Tony D Director Sep 09, 2019 1,866
KFFB Whitaker Tony D Director Sep 09, 2019 9,760
CZNC Pellegrino Frank G Director Sep 06, 2019 3,577
CMT PALOMAKI ERIC EVP,Operations Sep 03, 2019 610
CMT PALOMAKI ERIC EVP,Operations Sep 06, 2019 3,165
CMT PALOMAKI ERIC EVP,Operations Sep 04, 2019 5,490
CTRN Sachse Peter R Director Sep 09, 2019 151,560
HIBB BLAHNIK RONALD P SVP and CIO Sep 09, 2019 97,020
ESOA Elliott Bruce H. Director Sep 09, 2019 2,813
TPL HORIZON KINETICS ASSET MANAGEMENT LLC 10% Owner Sep 09, 2019 33,658
PCTI Neumann David A Chief Executive Officer Sep 09, 2019 7,000
SALM ATSINGER EDWARD G III Chief Executive Officer Sep 05, 2019 11,084
SALM ATSINGER EDWARD G III Chief Executive Officer Sep 06, 2019 2,027
FSK HAGAN MICHAEL J Director Sep 09, 2019 250,491
QBAK BRONSON STEVEN N COB, CEO, President Sep 05, 2019 37,546
QBAK BRONSON STEVEN N COB, CEO, President Sep 09, 2019 33,656
QBAK BRONSON STEVEN N COB, CEO, President Sep 06, 2019 69,082
MXL LITCHFIELD STEVEN G See remarks Sep 09, 2019 249,864
RRTS ELLIOTT INTERNATIONAL, L.P. 10% Owner Sep 06, 2019 4,256
RRTS ELLIOTT INTERNATIONAL, L.P. 10% Owner Sep 05, 2019 14,196
RRTS ELLIOTT INTERNATIONAL, L.P. 10% Owner Sep 09, 2019 7,076
PGNX LTE Partners, LLC 10% Owner Sep 09, 2019 106,096
PGNX LTE Partners, LLC 10% Owner Sep 05, 2019 201,097
CHRA Shannon Roger D CFO and Treasurer Sep 05, 2019 31,166
VOLT Cyprus Nick Director Sep 09, 2019 4,789
RYI Orth John E SVP, Operations Sep 06, 2019 13,425
AERI RUBINO RICHARD J Chief Financial Officer Sep 09, 2019 100,447
First : Previous :